Terminal Aerodrome Forecast
Issued by NWS Houston/Galveston, TX

Home | Current Version | Previous Version | Text Only | Print | Product List | Glossary On
Versions: 1 2 3 4 5 6 7 8 9 10 11 12 13 14 15 16 17 18 19 20
000
FTUS44 KHGX 241125
TAFCLL
TAF
KCLL 241125Z 2412/2512 22006KT P6SM OVC015
     FM241500 21011KT P6SM SCT080
     FM242100 20013KT P6SM SCT090 PROB30 2422/2424 VRB10KT TSRA
      OVC035CB
     FM250200 18008KT P6SM BKN200
     FM250800 18006KT P6SM SCT015 OVC150
      TEMPO 2509/2512 BKN015=

USA.gov is the U.S. government's official web portal to all federal, state and local government web resources and services.